createdAt,value
2023-03-21T00:01:52.035Z,19.25
2023-03-21T00:04:19.343Z,19.70
2023-03-21T00:06:46.724Z,21.13
2023-03-21T00:09:13.807Z,18.42
2023-03-21T00:11:41.161Z,18.35
2023-03-21T00:14:09.030Z,19.58
2023-03-21T00:16:40.575Z,19.75
2023-03-21T00:19:09.857Z,21.60
2023-03-21T00:21:49.077Z,22.67
2023-03-21T00:24:19.598Z,22.88
2023-03-21T00:26:47.475Z,23.25
2023-03-21T00:29:14.696Z,22.48
2023-03-21T00:31:41.739Z,24.77
2023-03-21T00:34:09.365Z,21.80
2023-03-21T00:36:37.331Z,25.05
2023-03-21T00:39:07.566Z,27.52
2023-03-21T00:41:42.577Z,20.42
2023-03-21T00:44:13.942Z,22.77
2023-03-21T00:46:49.348Z,22.63
2023-03-21T00:49:20.940Z,23.17
2023-03-21T00:51:51.337Z,22.13
2023-03-21T00:54:18.981Z,19.92
2023-03-21T00:56:45.986Z,21.73
2023-03-21T00:59:13.029Z,24.30
2023-03-21T01:01:40.137Z,22.85
2023-03-21T01:04:10.945Z,23.00
2023-03-21T01:06:39.706Z,24.08
2023-03-21T01:09:11.252Z,23.83
2023-03-21T01:11:38.334Z,23.67
2023-03-21T01:14:20.932Z,24.10
2023-03-21T01:16:50.317Z,23.65
2023-03-21T01:22:06.996Z,22.65
2023-03-21T01:24:37.711Z,21.83
2023-03-21T01:27:05.057Z,24.10
2023-03-21T01:29:32.174Z,21.83
2023-03-21T01:31:59.187Z,21.58
2023-03-21T01:34:26.463Z,21.75
2023-03-21T01:36:53.545Z,21.48
2023-03-21T01:39:21.679Z,26.90
2023-03-21T01:41:50.693Z,22.95
2023-03-21T01:44:23.381Z,23.63
2023-03-21T01:47:10.628Z,23.38
2023-03-21T01:49:46.880Z,23.15
2023-03-21T01:52:39.683Z,23.30
2023-03-21T01:55:27.597Z,22.70
2023-03-21T01:58:06.259Z,22.70
2023-03-21T02:00:50.045Z,24.00
2023-03-21T02:03:35.952Z,23.67
2023-03-21T02:06:31.935Z,22.20
2023-03-21T02:09:13.647Z,22.07
2023-03-21T02:11:46.512Z,22.23
2023-03-21T02:14:26.631Z,22.80
2023-03-21T02:19:53.839Z,21.20
2023-03-21T02:23:01.752Z,21.52
2023-03-21T02:25:38.147Z,28.08
2023-03-21T02:28:31.481Z,24.63
2023-03-21T02:31:40.712Z,23.02
2023-03-21T02:34:15.886Z,25.17
2023-03-21T02:37:17.821Z,22.17
2023-03-21T02:40:07.840Z,21.27
2023-03-21T02:43:04.274Z,21.88
2023-03-21T02:45:50.782Z,24.17
2023-03-21T02:48:29.529Z,23.83
2023-03-21T02:51:04.562Z,21.60
2023-03-21T02:53:39.533Z,24.92
2023-03-21T02:56:10.833Z,23.60
2023-03-21T02:58:44.857Z,25.42
2023-03-21T03:01:12.223Z,23.17
2023-03-21T03:03:45.044Z,24.27
2023-03-21T03:06:25.678Z,26.52
2023-03-21T03:09:21.222Z,23.80
2023-03-21T03:11:53.549Z,22.83
2023-03-21T03:15:01.883Z,24.80
2023-03-21T03:17:40.388Z,26.17
2023-03-21T03:20:16.634Z,23.15
2023-03-21T03:22:49.608Z,25.67
2023-03-21T03:25:36.029Z,27.92
2023-03-21T03:28:10.146Z,27.23
2023-03-21T03:30:44.964Z,26.80
2023-03-21T03:33:23.561Z,24.73
2023-03-21T03:36:04.385Z,21.70
2023-03-21T03:38:37.527Z,24.00
2023-03-21T03:41:19.559Z,25.48
2023-03-21T03:44:00.508Z,22.80
2023-03-21T03:46:33.567Z,23.83
2023-03-21T03:49:17.617Z,24.70
2023-03-21T03:52:03.745Z,26.80
2023-03-21T03:54:46.564Z,25.83
2023-03-21T03:57:14.336Z,25.60
2023-03-21T03:59:44.785Z,24.40
2023-03-21T04:02:15.101Z,24.42
2023-03-21T04:04:42.387Z,27.27
2023-03-21T04:07:09.899Z,24.10
2023-03-21T04:09:44.468Z,28.77
2023-03-21T04:12:16.194Z,25.35
2023-03-21T04:15:01.997Z,24.15
2023-03-21T04:17:35.538Z,23.17
2023-03-21T04:20:12.093Z,25.10
2023-03-21T04:22:42.611Z,26.10
2023-03-21T04:25:10.100Z,22.80
2023-03-21T04:27:37.665Z,25.30
2023-03-21T04:30:25.053Z,26.20
2023-03-21T04:33:06.281Z,27.48
2023-03-21T04:35:37.652Z,25.83
2023-03-21T04:38:05.724Z,27.17
2023-03-21T04:40:32.925Z,24.88
2023-03-21T04:43:01.457Z,26.98
2023-03-21T04:45:28.950Z,26.83
2023-03-21T04:47:57.387Z,25.50
2023-03-21T04:50:25.890Z,25.58
2023-03-21T04:52:53.003Z,23.73
2023-03-21T04:55:21.790Z,25.63
2023-03-21T04:57:49.261Z,25.55
2023-03-21T05:00:17.062Z,26.67
2023-03-21T05:02:44.212Z,26.98
2023-03-21T05:05:12.229Z,24.52
2023-03-21T05:07:42.293Z,24.52
2023-03-21T05:10:11.983Z,25.27
2023-03-21T05:12:41.340Z,26.30
2023-03-21T05:15:09.213Z,26.23
2023-03-21T05:17:37.197Z,25.45
2023-03-21T05:20:05.821Z,23.23
2023-03-21T05:22:40.610Z,21.67
2023-03-21T05:25:12.371Z,21.30
2023-03-21T05:28:08.277Z,19.55
2023-03-21T05:30:36.129Z,20.08
2023-03-21T05:33:03.761Z,23.17
2023-03-21T05:35:31.143Z,21.45
2023-03-21T05:38:01.164Z,20.80
2023-03-21T05:40:33.724Z,18.63
2023-03-21T05:43:02.306Z,18.60
2023-03-21T05:45:29.943Z,19.13
2023-03-21T05:47:57.357Z,19.00
2023-03-21T05:50:29.414Z,17.10
2023-03-21T05:53:14.022Z,17.83
2023-03-21T05:55:42.144Z,18.85
2023-03-21T05:58:15.423Z,18.40
2023-03-21T06:00:47.115Z,18.35
2023-03-21T06:03:23.625Z,19.88
2023-03-21T06:06:03.495Z,18.42
2023-03-21T06:08:36.437Z,21.35
2023-03-21T06:11:03.515Z,19.23
2023-03-21T06:13:33.484Z,20.88
2023-03-21T06:16:01.677Z,21.85
2023-03-21T06:18:29.146Z,20.60
2023-03-21T06:21:16.492Z,20.92
2023-03-21T06:23:43.994Z,19.45
2023-03-21T06:26:11.799Z,24.92
2023-03-21T06:28:39.792Z,21.70
2023-03-21T06:31:07.337Z,20.70
2023-03-21T06:33:34.713Z,19.58
2023-03-21T06:36:02.075Z,21.17
2023-03-21T06:38:30.371Z,24.17
2023-03-21T06:40:58.894Z,23.55
2023-03-21T06:43:28.749Z,24.58
2023-03-21T06:45:56.300Z,24.27
2023-03-21T06:48:23.485Z,21.73
2023-03-21T06:50:52.292Z,21.42
2023-03-21T06:53:24.979Z,22.48
2023-03-21T06:56:18.273Z,19.77
2023-03-21T06:58:46.784Z,25.25
2023-03-21T07:01:24.634Z,21.00
2023-03-21T07:03:59.694Z,19.50
2023-03-21T07:06:28.568Z,20.00
2023-03-21T07:08:56.271Z,19.70
2023-03-21T07:11:24.800Z,19.38
2023-03-21T07:13:52.060Z,17.73
2023-03-21T07:16:21.603Z,22.60
2023-03-21T07:18:49.073Z,18.40
2023-03-21T07:21:16.700Z,15.77
2023-03-21T07:23:44.626Z,14.98
2023-03-21T07:26:11.934Z,13.13
2023-03-21T07:28:39.512Z,17.17
2023-03-21T07:31:07.223Z,16.52
2023-03-21T07:33:34.486Z,14.63
2023-03-21T07:36:02.692Z,13.85
2023-03-21T07:38:31.239Z,13.27
2023-03-21T07:41:00.483Z,14.95
2023-03-21T07:43:31.214Z,14.75
2023-03-21T07:46:00.341Z,15.25
2023-03-21T07:48:27.894Z,14.80
2023-03-21T07:50:55.321Z,14.98
2023-03-21T07:53:23.663Z,14.38
2023-03-21T07:55:52.833Z,13.50
2023-03-21T07:58:19.946Z,13.32
2023-03-21T08:00:46.927Z,13.90
2023-03-21T08:03:14.027Z,14.00
2023-03-21T08:05:41.903Z,12.32
2023-03-21T08:08:09.143Z,12.52
2023-03-21T08:10:37.129Z,10.98
2023-03-21T08:13:04.476Z,13.10
2023-03-21T08:15:31.536Z,14.02
2023-03-21T08:17:59.662Z,12.30
2023-03-21T08:20:27.490Z,14.25
2023-03-21T08:22:54.930Z,10.85
2023-03-21T08:25:22.511Z,12.05
2023-03-21T08:27:51.337Z,14.25
2023-03-21T08:30:24.207Z,13.38
2023-03-21T08:32:51.415Z,12.05
2023-03-21T08:35:20.484Z,10.05
2023-03-21T08:37:47.705Z,10.68
2023-03-21T08:40:17.140Z,10.07
2023-03-21T08:42:47.292Z,9.65
2023-03-21T08:45:15.687Z,9.30
2023-03-21T08:47:43.154Z,12.38
2023-03-21T08:50:14.386Z,11.98
2023-03-21T08:52:41.756Z,11.85
2023-03-21T08:55:09.812Z,13.55
2023-03-21T08:57:36.912Z,16.35
2023-03-21T09:00:14.670Z,12.93
2023-03-21T09:02:42.532Z,12.88
2023-03-21T09:05:12.096Z,13.15
2023-03-21T09:07:41.701Z,14.35
2023-03-21T09:10:20.613Z,13.45
2023-03-21T09:12:49.930Z,12.23
2023-03-21T09:15:18.189Z,13.15
2023-03-21T09:17:50.220Z,14.52
2023-03-21T09:20:18.803Z,13.43
2023-03-21T09:22:48.571Z,15.88
2023-03-21T09:25:17.219Z,16.90
2023-03-21T09:27:48.058Z,14.27
2023-03-21T09:30:17.156Z,14.15
2023-03-21T09:32:49.599Z,16.13
2023-03-21T09:35:18.948Z,13.23
2023-03-21T09:37:50.075Z,13.25
2023-03-21T09:40:27.518Z,13.43
2023-03-21T09:43:10.330Z,14.98
2023-03-21T09:45:43.589Z,17.73
2023-03-21T09:48:26.076Z,18.90
2023-03-21T09:50:53.855Z,15.88
2023-03-21T09:53:35.883Z,14.15
2023-03-21T09:56:03.760Z,12.95
2023-03-21T09:58:40.497Z,15.35
2023-03-21T10:01:27.371Z,14.02
2023-03-21T10:04:04.808Z,12.15
2023-03-21T10:06:34.453Z,16.27
2023-03-21T10:09:09.327Z,12.60
2023-03-21T10:11:48.795Z,14.97
2023-03-21T10:14:26.149Z,14.07
2023-03-21T10:16:58.230Z,14.98
2023-03-21T10:19:28.007Z,13.20
2023-03-21T10:22:03.857Z,12.77
2023-03-21T10:24:34.192Z,12.85
2023-03-21T10:27:02.896Z,13.55
2023-03-21T10:29:38.996Z,12.32
2023-03-21T10:32:10.110Z,12.25
2023-03-21T10:34:43.950Z,13.20
2023-03-21T10:37:12.982Z,12.32
2023-03-21T10:39:45.230Z,10.77
2023-03-21T10:42:26.227Z,10.93
2023-03-21T10:44:56.501Z,10.48
2023-03-21T10:47:36.346Z,8.82
2023-03-21T10:50:13.135Z,10.40
2023-03-21T10:53:00.632Z,11.68
2023-03-21T10:55:36.285Z,10.02
2023-03-21T11:00:38.928Z,8.43
2023-03-21T11:03:07.015Z,10.70
2023-03-21T11:05:37.906Z,8.65
2023-03-21T11:08:15.109Z,8.43
2023-03-21T11:11:03.120Z,8.90
2023-03-21T11:13:43.489Z,10.57
2023-03-21T11:16:19.173Z,8.85
2023-03-21T11:18:51.635Z,8.75
2023-03-21T11:21:21.732Z,8.07
2023-03-21T11:23:51.816Z,7.95
2023-03-21T11:26:36.741Z,10.45
2023-03-21T11:29:28.024Z,7.22
2023-03-21T11:32:21.540Z,9.45
2023-03-21T11:34:48.676Z,8.75
2023-03-21T11:37:33.948Z,8.13
2023-03-21T11:40:13.629Z,7.90
2023-03-21T11:42:48.158Z,7.18
2023-03-21T11:45:30.999Z,7.13
2023-03-21T11:48:00.044Z,10.20
2023-03-21T11:50:30.299Z,6.78
2023-03-21T11:53:11.673Z,8.10
2023-03-21T11:55:49.778Z,7.25
2023-03-21T11:58:38.042Z,8.10
2023-03-21T12:01:29.156Z,8.10
2023-03-21T12:04:15.206Z,5.47
2023-03-21T12:06:55.324Z,7.13
2023-03-21T12:09:41.635Z,7.70
2023-03-21T12:12:33.033Z,6.78
2023-03-21T12:15:24.969Z,7.00
2023-03-21T12:18:39.083Z,6.95
2023-03-21T12:21:15.029Z,6.88
2023-03-21T12:23:54.188Z,7.55
2023-03-21T12:26:35.883Z,7.85
2023-03-21T12:29:08.709Z,8.43
2023-03-21T12:31:44.749Z,8.50
2023-03-21T12:34:24.064Z,8.38
2023-03-21T12:36:54.049Z,8.45
2023-03-21T12:39:39.866Z,7.85
2023-03-21T12:42:32.120Z,5.28
2023-03-21T12:45:46.126Z,5.45
2023-03-21T12:48:36.350Z,10.30
2023-03-21T12:51:08.300Z,8.18
2023-03-21T12:53:51.112Z,7.60
2023-03-21T12:56:28.518Z,9.63
2023-03-21T12:59:22.540Z,7.25
2023-03-21T13:01:53.782Z,6.80
2023-03-21T13:04:48.221Z,6.80
2023-03-21T13:07:20.241Z,6.07
2023-03-21T13:09:47.740Z,7.07
2023-03-21T13:12:37.408Z,6.28
2023-03-21T13:15:25.794Z,7.18
2023-03-21T13:18:12.357Z,5.13
2023-03-21T13:21:03.072Z,7.57
2023-03-21T13:23:38.630Z,6.68
2023-03-21T13:26:11.310Z,4.97
2023-03-21T13:28:40.960Z,6.32
2023-03-21T13:31:25.650Z,5.90
2023-03-21T13:33:54.803Z,8.60
2023-03-21T13:36:28.520Z,6.05
2023-03-21T13:39:01.504Z,5.95
2023-03-21T13:41:39.299Z,5.65
2023-03-21T13:44:19.819Z,7.05
2023-03-21T13:47:00.487Z,7.65
2023-03-21T13:49:32.356Z,8.32
2023-03-21T13:52:26.453Z,6.55
2023-03-21T13:54:56.128Z,6.63
2023-03-21T13:57:30.599Z,6.45
2023-03-21T14:00:30.365Z,6.45
2023-03-21T14:03:08.133Z,6.03
2023-03-21T14:05:37.578Z,5.90
2023-03-21T14:08:15.606Z,5.22
2023-03-21T14:11:14.629Z,7.38
2023-03-21T14:13:50.767Z,5.38
2023-03-21T14:16:20.461Z,5.40
2023-03-21T14:19:02.037Z,4.78
2023-03-21T14:21:31.985Z,5.97
2023-03-21T14:24:03.817Z,4.85
2023-03-21T14:26:35.920Z,5.20
2023-03-21T14:29:22.799Z,4.72
2023-03-21T14:31:52.223Z,4.80
2023-03-21T14:34:20.424Z,5.38
2023-03-21T14:36:56.881Z,5.50
2023-03-21T14:39:29.882Z,4.50
2023-03-21T14:42:13.864Z,4.20
2023-03-21T14:44:58.365Z,4.20
2023-03-21T14:47:28.100Z,4.65
2023-03-21T14:49:57.304Z,4.15
2023-03-21T14:52:33.388Z,4.75
2023-03-21T14:55:02.704Z,4.07
2023-03-21T14:57:33.273Z,4.78
2023-03-21T15:00:14.631Z,5.85
2023-03-21T15:02:44.763Z,4.50
2023-03-21T15:05:18.092Z,4.55
2023-03-21T15:08:08.021Z,5.35
2023-03-21T15:10:35.777Z,4.68
2023-03-21T15:13:20.226Z,4.18
2023-03-21T15:15:48.350Z,4.53
2023-03-21T15:18:20.555Z,3.75
2023-03-21T15:20:50.125Z,4.65
2023-03-21T15:23:35.024Z,3.72
2023-03-21T15:26:04.341Z,4.78
2023-03-21T15:28:34.851Z,6.05
2023-03-21T15:31:02.286Z,6.15
2023-03-21T15:33:29.382Z,4.35
2023-03-21T15:35:58.813Z,6.78
2023-03-21T15:38:49.041Z,4.18
2023-03-21T15:41:23.175Z,3.88
2023-03-21T15:44:02.707Z,4.57
2023-03-21T15:46:55.598Z,4.93
2023-03-21T15:49:25.728Z,4.20
2023-03-21T15:52:12.692Z,4.55
2023-03-21T15:54:55.953Z,4.25
2023-03-21T15:57:25.633Z,7.95
2023-03-21T16:00:25.872Z,5.80
2023-03-21T16:02:58.003Z,5.25
2023-03-21T16:05:27.667Z,3.28
2023-03-21T16:08:04.527Z,4.35
2023-03-21T16:10:38.148Z,3.90
2023-03-21T16:13:06.693Z,4.10
2023-03-21T16:15:34.282Z,4.30
2023-03-21T16:18:03.671Z,3.75
2023-03-21T16:20:42.577Z,4.13
2023-03-21T16:23:14.969Z,3.67
2023-03-21T16:25:45.943Z,5.20
2023-03-21T16:28:16.617Z,3.45
2023-03-21T16:30:44.196Z,4.10
2023-03-21T16:33:12.786Z,4.30
2023-03-21T16:35:40.584Z,3.92
2023-03-21T16:38:07.842Z,4.68
2023-03-21T16:40:38.023Z,7.40
2023-03-21T16:43:05.433Z,7.80
2023-03-21T16:45:32.926Z,5.85
2023-03-21T16:48:00.484Z,6.22
2023-03-21T16:50:40.107Z,5.20
2023-03-21T16:53:07.353Z,4.65
2023-03-21T16:55:37.275Z,5.53
2023-03-21T16:58:05.492Z,5.57
2023-03-21T17:00:32.805Z,4.32
2023-03-21T17:03:02.604Z,5.35
2023-03-21T17:05:32.944Z,5.22
2023-03-21T17:08:02.517Z,4.20
2023-03-21T17:10:31.668Z,4.72
2023-03-21T17:12:59.288Z,4.53
2023-03-21T17:15:26.466Z,4.60
2023-03-21T17:17:55.716Z,5.95
2023-03-21T17:20:31.749Z,4.03
2023-03-21T17:22:59.888Z,4.57
2023-03-21T17:25:27.296Z,3.78
2023-03-21T17:27:54.628Z,2.95
2023-03-21T17:30:40.643Z,5.55
2023-03-21T17:35:35.373Z,4.30
2023-03-21T17:38:02.472Z,3.55
2023-03-21T17:40:31.649Z,3.65
2023-03-21T17:43:01.353Z,3.67
2023-03-21T17:45:28.538Z,3.58
2023-03-21T17:47:55.623Z,2.03
2023-03-21T17:50:25.993Z,4.15
2023-03-21T17:52:53.286Z,2.30
2023-03-21T17:55:21.411Z,2.05
2023-03-21T17:57:49.117Z,2.78
2023-03-21T18:00:25.142Z,2.92
2023-03-21T18:02:52.786Z,2.33
2023-03-21T18:05:24.885Z,3.13
2023-03-21T18:08:10.495Z,2.42
2023-03-21T18:10:39.157Z,2.20
2023-03-21T18:13:06.604Z,2.83
2023-03-21T18:15:33.802Z,1.88
2023-03-21T18:18:00.918Z,1.80
2023-03-21T18:20:49.950Z,1.85
2023-03-21T18:23:18.783Z,5.97
2023-03-21T18:25:46.099Z,5.78
2023-03-21T18:28:13.809Z,5.03
2023-03-21T18:31:09.626Z,8.23
2023-03-21T18:33:30.070Z,6.90
2023-03-21T18:35:59.325Z,3.97
2023-03-21T18:38:27.930Z,2.95
2023-03-21T18:40:55.721Z,3.35
2023-03-21T18:46:10.014Z,2.17
2023-03-21T18:48:37.248Z,2.85
2023-03-21T18:51:04.730Z,2.72
2023-03-21T18:53:31.910Z,3.95
2023-03-21T18:55:58.948Z,2.40
2023-03-21T18:58:28.273Z,2.35
2023-03-21T19:00:57.997Z,3.40
2023-03-21T19:03:35.982Z,2.63
2023-03-21T19:06:05.511Z,3.10
2023-03-21T19:08:34.900Z,5.53
2023-03-21T19:11:06.110Z,5.78
2023-03-21T19:13:34.291Z,8.35
2023-03-21T19:16:02.790Z,16.08
2023-03-21T19:21:19.511Z,23.55
2023-03-21T19:26:34.061Z,19.33
2023-03-21T19:29:01.369Z,18.17
2023-03-21T19:31:28.596Z,21.42
2023-03-21T19:33:56.321Z,19.00
2023-03-21T19:36:23.695Z,15.70
2023-03-21T19:38:51.441Z,20.50
2023-03-21T19:41:20.208Z,21.33
2023-03-21T19:43:54.644Z,16.45
2023-03-21T19:46:25.468Z,16.52
2023-03-21T19:48:57.309Z,14.13
2023-03-21T19:51:29.772Z,11.13
2023-03-21T19:53:58.509Z,11.23
2023-03-21T19:56:27.542Z,11.55
2023-03-21T19:58:55.974Z,9.65
2023-03-21T20:01:24.805Z,6.93
2023-03-21T20:03:52.557Z,6.88
2023-03-21T20:06:20.114Z,6.57
2023-03-21T20:09:27.646Z,4.97
2023-03-21T20:11:34.430Z,3.67
2023-03-21T20:14:05.422Z,3.78
2023-03-21T20:16:35.847Z,3.55
2023-03-21T20:19:05.136Z,4.82
2023-03-21T20:21:41.133Z,3.60
2023-03-21T20:24:12.988Z,4.05
2023-03-21T20:26:40.298Z,4.50
2023-03-21T20:29:59.850Z,3.35
2023-03-21T20:31:54.831Z,2.95
2023-03-21T20:34:21.846Z,3.85
2023-03-21T20:36:49.191Z,4.50
2023-03-21T20:39:16.261Z,3.80
2023-03-21T20:41:43.251Z,4.78
2023-03-21T20:46:57.489Z,4.07
2023-03-21T20:49:25.013Z,4.25
2023-03-21T20:54:39.607Z,6.90
2023-03-21T20:57:06.617Z,10.27
2023-03-21T20:59:33.956Z,6.45
2023-03-21T21:02:02.642Z,7.72
2023-03-21T21:04:55.788Z,7.38
2023-03-21T21:07:21.114Z,6.63
2023-03-21T21:09:49.513Z,6.93
2023-03-21T21:12:19.431Z,6.93
2023-03-21T21:14:47.940Z,7.10
2023-03-21T21:20:16.532Z,8.10
2023-03-21T21:22:58.941Z,7.72
2023-03-21T21:25:29.249Z,9.60
2023-03-21T21:27:56.366Z,7.72
2023-03-21T21:30:23.888Z,8.52
2023-03-21T21:32:50.889Z,8.13
2023-03-21T21:35:19.661Z,6.97
2023-03-21T21:37:47.494Z,8.70
2023-03-21T21:40:20.708Z,8.88
2023-03-21T21:42:48.214Z,6.95
2023-03-21T21:45:16.006Z,8.40
2023-03-21T21:47:45.473Z,7.80
2023-03-21T21:50:13.526Z,8.43
2023-03-21T21:52:43.873Z,8.43
2023-03-21T21:55:13.211Z,10.10
2023-03-21T21:57:40.508Z,9.35
2023-03-21T22:00:13.684Z,6.53
2023-03-21T22:02:41.771Z,8.95
2023-03-21T22:05:10.687Z,8.40
2023-03-21T22:07:38.094Z,8.45
2023-03-21T22:10:06.979Z,8.60
2023-03-21T22:12:34.473Z,9.18
2023-03-21T22:15:01.666Z,8.35
2023-03-21T22:17:28.672Z,7.85
2023-03-21T22:20:05.528Z,9.20
2023-03-21T22:22:34.565Z,8.30
2023-03-21T22:25:02.258Z,8.68
2023-03-21T22:27:29.448Z,8.95
2023-03-21T22:29:56.457Z,9.30
2023-03-21T22:32:23.969Z,8.13
2023-03-21T22:34:51.262Z,8.63
2023-03-21T22:37:18.383Z,8.57
2023-03-21T22:39:45.475Z,9.20
2023-03-21T22:42:12.481Z,9.75
2023-03-21T22:44:39.464Z,10.90
2023-03-21T22:47:09.558Z,8.65
2023-03-21T22:49:37.901Z,8.45
2023-03-21T22:52:06.227Z,10.00
2023-03-21T22:54:33.400Z,8.68
2023-03-21T22:57:00.579Z,7.85
2023-03-21T22:59:28.160Z,9.98
2023-03-21T23:01:56.712Z,7.80
2023-03-21T23:04:24.787Z,7.68
2023-03-21T23:06:52.271Z,9.45
2023-03-21T23:09:19.627Z,8.25
2023-03-21T23:11:49.770Z,8.85
2023-03-21T23:14:19.442Z,6.78
2023-03-21T23:16:52.151Z,9.43
2023-03-21T23:19:21.299Z,7.28
2023-03-21T23:21:48.706Z,7.22
2023-03-21T23:24:16.065Z,9.93
2023-03-21T23:26:43.112Z,7.45
2023-03-21T23:29:10.688Z,7.47
2023-03-21T23:31:37.723Z,7.57
2023-03-21T23:34:05.132Z,7.38
2023-03-21T23:36:32.421Z,10.52
2023-03-21T23:38:59.377Z,8.32
2023-03-21T23:41:26.697Z,10.68
2023-03-21T23:43:53.897Z,8.00
2023-03-21T23:46:21.357Z,11.65
2023-03-21T23:48:48.747Z,14.80
2023-03-21T23:51:17.530Z,10.60
2023-03-21T23:53:45.953Z,9.80
2023-03-21T23:56:19.023Z,9.68
2023-03-21T23:58:47.084Z,9.32
